Estación de Illapel
Ultimos registro cada 15 minutos 80
| N° | Estación | Fecha / Hora | Temperatura | Humedad | Lluvia | Velocidad | Dirección | Radiación | Presion |
| 80 | Illapel | 06-05-2026 19:45 | 16 | 61 | 0 | 0,4 | 317 | 0 | 1003,8 |
| 79 | Illapel | 06-05-2026 19:30 | 16,2 | 62 | 0 | 2,2 | 321 | 0 | 1003,8 |
| 78 | Illapel | 06-05-2026 19:15 | 16,4 | 62 | 0 | 0 | 324 | 0 | 1003,8 |
| 77 | Illapel | 06-05-2026 19:00 | 16,4 | 62 | 0 | 0 | 277 | 0 | 1003,8 |
| 76 | Illapel | 06-05-2026 18:45 | 16,6 | 62 | 0 | 0,4 | 264 | 0 | 1003,8 |
| 75 | Illapel | 06-05-2026 18:30 | 16,7 | 63 | 0 | 0 | 322 | 0 | 1003,8 |
| 74 | Illapel | 06-05-2026 18:15 | 16,9 | 63 | 0 | 0,4 | 312 | 0 | 1003,8 |
| 73 | Illapel | 06-05-2026 18:00 | 17,2 | 62 | 0 | 0,9 | 302 | 0 | 1003,8 |
| 72 | Illapel | 06-05-2026 17:45 | 17,5 | 61 | 0 | 2,2 | 314 | 0 | 1003,8 |
| 71 | Illapel | 06-05-2026 17:30 | 17,8 | 60 | 0 | 1,8 | 326 | 12 | 1003,8 |
| 70 | Illapel | 06-05-2026 17:15 | 18,1 | 59 | 0 | 2,2 | 360 | 21 | 1003,8 |
| 69 | Illapel | 06-05-2026 17:00 | 18,5 | 58 | 0 | 2,7 | 303 | 30 | 1003,8 |
| 68 | Illapel | 06-05-2026 16:45 | 18,7 | 56 | 0 | 0,4 | 315 | 30 | 1003,8 |
| 67 | Illapel | 06-05-2026 16:30 | 18,8 | 56 | 0 | 1,8 | 285 | 28 | 1003,8 |
| 66 | Illapel | 06-05-2026 16:15 | 18,8 | 56 | 0 | 0,9 | 283 | 39 | 1003,8 |
| 65 | Illapel | 06-05-2026 16:00 | 18,8 | 57 | 0 | 2,2 | 321 | 51 | 1003,8 |
| 64 | Illapel | 06-05-2026 15:45 | 18,9 | 56 | 0 | 1,8 | 318 | 56 | 1003,8 |
| 63 | Illapel | 06-05-2026 15:30 | 19,1 | 55 | 0 | 2,7 | 302 | 47 | 1003,8 |
| 62 | Illapel | 06-05-2026 15:15 | 19,6 | 53 | 0 | 0,4 | 311 | 51 | 1003,8 |
| 61 | Illapel | 06-05-2026 15:00 | 20,2 | 52 | 0 | 1,8 | 318 | 67 | 1003,8 |
| 60 | Illapel | 06-05-2026 14:45 | 20,9 | 49 | 0 | 1,8 | 321 | 97 | 1003,8 |
| 59 | Illapel | 06-05-2026 14:30 | 21,6 | 46 | 0 | 0,9 | 287 | 104 | 1003,8 |
| 58 | Illapel | 06-05-2026 14:15 | 22,2 | 44 | 0 | 0,9 | 249 | 125 | 1003,8 |
| 57 | Illapel | 06-05-2026 14:00 | 22,9 | 42 | 0 | 2,7 | 246 | 236 | 1003,8 |
| 56 | Illapel | 06-05-2026 13:45 | 23,5 | 40 | 0 | 1,8 | 258 | 257 | 1003,8 |
| 55 | Illapel | 06-05-2026 13:30 | 23,8 | 40 | 0 | 0,9 | 356 | 345 | 1003,8 |
| 54 | Illapel | 06-05-2026 13:15 | 23,4 | 41 | 0 | 1,8 | 331 | 169 | 1003,8 |
| 53 | Illapel | 06-05-2026 13:00 | 23,3 | 39 | 0 | 2,2 | 351 | 162 | 1003,8 |
| 52 | Illapel | 06-05-2026 12:45 | 22,8 | 40 | 0 | 3,6 | 360 | 178 | 1003,8 |
| 51 | Illapel | 06-05-2026 12:30 | 22,2 | 41 | 0 | 2,2 | 318 | 128 | 1003,8 |
| 50 | Illapel | 06-05-2026 12:15 | 21,8 | 43 | 0 | 2,2 | 333 | 197 | 1003,8 |
| 49 | Illapel | 06-05-2026 12:00 | 21,3 | 42 | 0 | 0,9 | 352 | 218 | 1003,8 |
| 48 | Illapel | 06-05-2026 11:45 | 20,9 | 43 | 0 | 1,3 | 1 | 244 | 1003,8 |
| 47 | Illapel | 06-05-2026 11:30 | 20,6 | 44 | 0 | 0,9 | 354 | 192 | 1003,8 |
| 46 | Illapel | 06-05-2026 11:15 | 20,2 | 40 | 0 | 1,8 | 31 | 362 | 1003,8 |
| 45 | Illapel | 06-05-2026 11:00 | 19,6 | 41 | 0 | 0 | 33 | 548 | 1003,8 |
| 44 | Illapel | 06-05-2026 10:45 | 18,7 | 43 | 0 | 0 | 30 | 534 | 1003,8 |
| 43 | Illapel | 06-05-2026 10:30 | 17,7 | 45 | 0 | 0 | 27 | 341 | 1003,8 |
| 42 | Illapel | 06-05-2026 10:15 | 16,6 | 47 | 0 | 0 | 31 | 454 | 1003,8 |
| 41 | Illapel | 06-05-2026 10:00 | 16,1 | 48 | 0 | 0 | 60 | 406 | 1003,8 |
| 40 | Illapel | 06-05-2026 09:45 | 15,1 | 50 | 0 | 0 | 76 | 195 | 1003,8 |
| 39 | Illapel | 06-05-2026 09:30 | 14,2 | 50 | 0 | 0,9 | 114 | 330 | 927,6 |
| 38 | Illapel | 06-05-2026 09:15 | 12,8 | 44 | 0 | 0,4 | 53 | 288 | 927,6 |
| 37 | Illapel | 06-05-2026 09:00 | 11,6 | 34 | 0 | 1,3 | 70 | 135 | 927,6 |
| 36 | Illapel | 06-05-2026 08:45 | 10,6 | 37 | 0 | 0,4 | 158 | 204 | 927,6 |
| 35 | Illapel | 06-05-2026 08:30 | 9,8 | 37 | 0 | 0,4 | 71 | 114 | 940,1 |
| 34 | Illapel | 06-05-2026 08:15 | 9,2 | 37 | 0 | 0 | 163 | 53 | 938,2 |
| 33 | Illapel | 06-05-2026 08:00 | 8,3 | 36 | 0 | 0 | 106 | 25 | 943,6 |
| 32 | Illapel | 06-05-2026 07:45 | 8,1 | 36 | 0 | 0 | 100 | 16 | 944,5 |
| 31 | Illapel | 06-05-2026 07:30 | 8,1 | 35 | 0 | 0 | 100 | 7 | 946,2 |
| 30 | Illapel | 06-05-2026 07:15 | 8,2 | 35 | 0 | 0 | 100 | 0 | 942,5 |
| 29 | Illapel | 06-05-2026 07:00 | 8,4 | 35 | 0 | 0 | 100 | 0 | 939,8 |
| 28 | Illapel | 06-05-2026 06:45 | 8,5 | 35 | 0 | 0 | 99 | 0 | 938,1 |
| 27 | Illapel | 06-05-2026 06:30 | 8,5 | 36 | 0 | 0 | 100 | 0 | 939,7 |
| 26 | Illapel | 06-05-2026 06:15 | 8,6 | 35 | 0 | 0,4 | 94 | 0 | 938,1 |
| 25 | Illapel | 06-05-2026 06:00 | 8,8 | 35 | 0 | 0,9 | 102 | 0 | 937 |
| 24 | Illapel | 06-05-2026 05:45 | 9,2 | 35 | 0 | 0 | 92 | 0 | 937,6 |
| 23 | Illapel | 06-05-2026 05:30 | 9,3 | 35 | 0 | 1,8 | 131 | 0 | 934,9 |
| 22 | Illapel | 06-05-2026 05:15 | 9,5 | 35 | 0 | 0 | 121 | 0 | 932,3 |
| 21 | Illapel | 06-05-2026 05:00 | 9,8 | 35 | 0 | 0 | 117 | 0 | 922 |
| 20 | Illapel | 06-05-2026 04:45 | 9,8 | 35 | 0 | 0 | 96 | 0 | 915,6 |
| 19 | Illapel | 06-05-2026 04:30 | 9,9 | 35 | 0 | 0 | 92 | 0 | 897,4 |
| 18 | Illapel | 06-05-2026 04:15 | 9,8 | 35 | 0 | 0 | 92 | 0 | 925,6 |
| 17 | Illapel | 06-05-2026 04:00 | 9,8 | 35 | 0 | 0 | 76 | 0 | 930,6 |
| 16 | Illapel | 06-05-2026 03:45 | 9,8 | 34 | 0 | 0 | 75 | 0 | 932,4 |
| 15 | Illapel | 06-05-2026 03:30 | 10,1 | 34 | 0 | 0 | 98 | 0 | 932,1 |
| 14 | Illapel | 06-05-2026 03:15 | 10,4 | 34 | 0 | 0 | 82 | 0 | 930,6 |
| 13 | Illapel | 06-05-2026 03:00 | 10,4 | 34 | 0 | 0 | 308 | 0 | 934 |
| 12 | Illapel | 06-05-2026 02:45 | 10,4 | 34 | 0 | 0 | 308 | 0 | 933,6 |
| 11 | Illapel | 06-05-2026 02:30 | 10,6 | 34 | 0 | 0 | 308 | 0 | 931,6 |
| 10 | Illapel | 06-05-2026 02:15 | 10,7 | 34 | 0 | 0 | 308 | 0 | 931,8 |
| 9 | Illapel | 06-05-2026 02:00 | 10,9 | 34 | 0 | 0 | 302 | 0 | 1005,7 |
| 8 | Illapel | 06-05-2026 01:45 | 11 | 34 | 0 | 0 | 299 | 0 | 1005,7 |
| 7 | Illapel | 06-05-2026 01:30 | 11,1 | 34 | 0 | 0 | 298 | 0 | 1005,7 |
| 6 | Illapel | 06-05-2026 01:15 | 11,2 | 34 | 0 | 0 | 298 | 0 | 1005,7 |
| 5 | Illapel | 06-05-2026 01:00 | 11,2 | 34 | 0 | 0 | 298 | 0 | 1005,7 |
| 4 | Illapel | 06-05-2026 00:45 | 11,2 | 35 | 0 | 0 | 298 | 0 | 1005,7 |
| 3 | Illapel | 06-05-2026 00:30 | 11,3 | 37 | 0 | 0 | 298 | 0 | 1005,7 |
| 2 | Illapel | 06-05-2026 00:15 | 11,4 | 37 | 0 | 0 | 297 | 0 | 1005,7 |
| 1 | Illapel | 06-05-2026 00:00 | 11,5 | 37 | 0 | 0 | 294 | 0 | 1005,7 |